Time;durP1;ratioP1;P1;durP2;ratioP2;P2;SDS_P1;SDS_P2;PMS_P1;PMS_P2;Temp;Humidity;BMP_temperature;BMP_pressure;BME280_temperature;BME280_humidity;BME280_pressure;Samples;Min_cycle;Max_cycle;Signal;HPM_P1;HPM_P2
2022/02/08 00:00:49;;;;;;;;;7.33;4.00;;;;;-147.17;83.68;50729.88;4993676;28;51125;-69
2022/02/08 00:03:17;;;;;;;;;6.67;6.00;;;;;-147.17;83.95;50759.41;4988657;28;51208;-68
2022/02/08 00:05:46;;;;;;;;;6.33;5.00;;;;;-147.17;83.95;50741.69;4992061;28;51106;-69
2022/02/08 00:08:12;;;;;;;;;7.50;7.50;;;;;-147.17;83.88;50725.94;4993246;28;51080;-68
2022/02/08 00:10:38;;;;;;;;;8.75;7.25;;;;;-147.17;84.18;50722.00;4989794;28;51232;-67
2022/02/08 00:13:04;;;;;;;;;8.00;6.50;;;;;-147.17;84.12;50702.31;4990873;28;51238;-68
2022/02/08 00:15:29;;;;;;;;;9.00;7.00;;;;;-147.17;84.16;50714.13;4983579;28;51579;-67
2022/02/08 00:17:54;;;;;;;;;10.00;6.33;;;;;-147.17;84.41;50737.75;4992272;28;51181;-67
2022/02/08 00:20:20;;;;;;;;;5.67;5.67;;;;;-147.17;84.51;50694.44;4975985;28;51752;-68
2022/02/08 00:22:46;;;;;;;;;6.00;6.00;;;;;-147.17;84.58;50716.09;4997218;28;51385;-67
2022/02/08 00:25:11;;;;;;;;;7.00;5.00;;;;;-147.17;84.96;50729.88;4986604;28;52673;-67
2022/02/08 00:27:37;;;;;;;;;6.25;6.25;;;;;-147.17;85.34;50718.06;4998429;28;51069;-68
2022/02/08 00:30:04;;;;;;;;;6.67;5.33;;;;;-147.17;85.48;50718.06;4995985;28;51731;-66
2022/02/08 00:32:30;;;;;;;;;6.33;5.00;;;;;-147.17;85.78;50716.09;5002222;28;51044;-67
2022/02/08 00:34:55;;;;;;;;;10.75;9.00;;;;;-147.17;85.71;50712.16;4990540;28;51174;-64
2022/02/08 00:37:20;;;;;;;;;7.75;5.25;;;;;-147.17;86.00;50672.78;4990448;28;51354;-65
2022/02/08 00:39:46;;;;;;;;;5.33;5.33;;;;;-147.17;86.15;50688.53;4975761;28;52978;-66
2022/02/08 00:42:12;;;;;;;;;5.33;5.00;;;;;-147.17;86.48;50690.50;4985029;28;51257;-65
2022/02/08 00:47:39;;;;;;;;;9.67;8.00;;;;;-147.17;86.62;50718.06;4972148;28;51145;-67
2022/02/08 00:50:07;;;;;;;;;9.67;8.33;;;;;-147.17;86.54;50694.44;4973059;28;51871;-65
2022/02/08 00:52:34;;;;;;;;;9.00;8.00;;;;;-147.17;86.89;50741.69;4994449;28;51382;-65
2022/02/08 00:55:00;;;;;;;;;10.00;9.00;;;;;-147.17;86.81;50718.06;4991684;28;51516;-63
2022/02/08 00:57:25;;;;;;;;;10.00;9.00;;;;;-147.17;86.96;50710.19;4997005;28;51320;-65
2022/02/08 00:59:51;;;;;;;;;13.50;12.00;;;;;-147.17;86.56;50712.16;4996203;28;52775;-65
2022/02/08 01:02:16;;;;;;;;;11.67;11.33;;;;;-147.17;87.04;50722.00;4986872;28;52025;-67
2022/02/08 01:04:47;;;;;;;;;10.33;10.33;;;;;-147.17;86.84;50700.34;4993474;28;51128;-64
2022/02/08 01:07:13;;;;;;;;;11.67;9.00;;;;;-147.17;87.17;50729.88;4973066;28;51241;-63
2022/02/08 01:12:20;;;;;;;;;10.67;8.33;;;;;-147.17;87.30;50670.81;4994431;28;51434;-65
2022/02/08 01:14:49;;;;;;;;;8.00;6.33;;;;;-147.17;87.20;50704.28;4982535;28;51214;-66
2022/02/08 01:17:15;;;;;;;;;8.00;6.33;;;;;-147.17;87.39;50690.50;4983644;28;51368;-64
2022/02/08 01:19:49;;;;;;;;;8.00;6.33;;;;;-147.17;87.44;50698.38;4995455;28;51953;-63
2022/02/08 01:22:15;;;;;;;;;9.00;9.00;;;;;-147.17;87.61;50706.25;4989445;28;51074;-67
2022/02/08 01:24:43;;;;;;;;;7.00;7.00;;;;;-147.17;88.03;50698.38;4975369;28;51514;-68
2022/02/08 01:27:11;;;;;;;;;6.33;4.00;;;;;-147.17;87.76;50682.63;4983488;28;51285;-67
2022/02/08 01:29:40;;;;;;;;;9.00;8.33;;;;;-147.17;88.09;50712.16;4999434;28;51945;-68
2022/02/08 01:33:12;;;;;;;;;8.67;7.67;;;;;-147.17;88.09;50670.81;4998479;28;51163;-68
2022/02/08 01:40:26;;;;;;;;;6.33;6.33;;;;;-147.17;88.93;50692.47;5000050;28;51099;-67
2022/02/08 01:50:55;;;;;;;;;14.75;12.00;;;;;-147.17;88.48;50700.34;4998781;28;51177;-65
2022/02/08 01:53:22;;;;;;;;;11.50;9.75;;;;;-147.17;88.33;50704.28;5000280;28;51183;-66
2022/02/08 01:55:47;;;;;;;;;10.75;9.50;;;;;-147.17;88.46;50706.25;4996025;28;51181;-67
2022/02/08 01:58:13;;;;;;;;;12.75;11.00;;;;;-147.17;88.35;50676.72;4990144;28;50984;-67
2022/02/08 02:00:39;;;;;;;;;11.00;9.50;;;;;-147.17;88.15;50674.75;4995655;28;50990;-68
2022/02/08 02:03:04;;;;;;;;;11.00;10.00;;;;;-147.17;88.39;50700.34;4995316;28;50976;-68
2022/02/08 02:05:30;;;;;;;;;14.00;10.50;;;;;-147.17;88.25;50643.25;4996417;28;51130;-68
2022/02/08 02:07:57;;;;;;;;;11.00;10.00;;;;;-147.17;88.19;50700.34;4989478;28;51443;-65
2022/02/08 02:10:24;;;;;;;;;12.00;9.00;;;;;-147.17;88.13;50706.25;4991503;28;52599;-64
2022/02/08 02:12:51;;;;;;;;;11.25;11.25;;;;;-147.17;88.68;50682.63;4974957;28;51197;-64
2022/02/08 02:15:17;;;;;;;;;12.00;10.50;;;;;-147.17;88.77;50686.56;4990038;28;51098;-63
2022/02/08 02:17:42;;;;;;;;;11.75;9.50;;;;;-147.17;88.71;50676.72;4995214;28;51175;-64
2022/02/08 02:20:09;;;;;;;;;12.00;11.00;;;;;-147.17;89.12;50637.34;4994526;28;51890;-64
2022/02/08 02:22:35;;;;;;;;;10.33;10.00;;;;;-147.17;89.04;50710.19;4996483;28;51138;-64
2022/02/08 02:25:00;;;;;;;;;10.67;8.67;;;;;-147.17;89.42;50662.94;4992227;28;51068;-64
2022/02/08 02:27:25;;;;;;;;;8.00;8.00;;;;;-147.17;89.64;50688.53;4994465;28;51082;-64
2022/02/08 02:29:51;;;;;;;;;8.00;6.33;;;;;-147.17;89.81;50686.56;4991060;28;50964;-63
2022/02/08 02:32:16;;;;;;;;;9.00;8.00;;;;;-147.17;89.90;50698.38;4995210;28;51109;-65
2022/02/08 02:34:51;;;;;;;;;9.33;8.00;;;;;-147.17;89.97;50678.69;4989729;28;51539;-65
2022/02/08 02:37:17;;;;;;;;;12.00;10.33;;;;;-147.17;90.39;50639.31;4984268;28;51267;-65
2022/02/08 02:39:43;;;;;;;;;9.00;8.00;;;;;-147.17;90.62;50678.69;4992732;28;51188;-65
2022/02/08 02:42:18;;;;;;;;;6.75;6.75;;;;;-147.17;90.64;50672.78;4987708;28;51189;-65
2022/02/08 02:44:43;;;;;;;;;11.00;10.00;;;;;-147.17;91.03;50645.22;4974161;28;51682;-65
2022/02/08 02:47:09;;;;;;;;;7.67;7.67;;;;;-147.17;91.03;50664.91;4991919;28;51364;-66
2022/02/08 02:49:34;;;;;;;;;9.67;8.33;;;;;-147.17;90.87;50641.28;4991651;28;51131;-65
2022/02/08 02:52:00;;;;;;;;;8.00;8.00;;;;;-147.17;91.17;50659.00;4992631;28;51062;-64
2022/02/08 02:54:26;;;;;;;;;9.25;8.50;;;;;-147.17;91.20;50635.38;4990710;28;51328;-64
2022/02/08 02:56:53;;;;;;;;;12.00;11.50;;;;;-147.17;91.20;50653.09;4990352;28;51297;-65
2022/02/08 02:59:20;;;;;;;;;10.50;9.50;;;;;-147.17;90.95;50619.63;4991133;28;51975;-66
2022/02/08 03:20:51;;;;;;;;;11.00;10.25;;;;;-147.17;91.05;50639.31;4991758;28;51248;-67
2022/02/08 03:23:17;;;;;;;;;12.25;10.50;;;;;-147.17;91.14;50649.16;4974405;28;51532;-63
2022/02/08 03:25:42;;;;;;;;;9.00;8.25;;;;;-147.17;91.46;50629.47;4990334;28;51054;-63
2022/02/08 03:28:08;;;;;;;;;10.00;8.50;;;;;-147.17;91.33;50643.25;4990833;28;51369;-64
2022/02/08 03:30:34;;;;;;;;;9.00;9.00;;;;;-147.17;91.76;50627.50;4990800;28;51805;-64
2022/02/08 03:33:00;;;;;;;;;10.50;9.75;;;;;-147.17;91.97;50617.66;4991311;28;51252;-65
2022/02/08 03:35:25;;;;;;;;;13.25;12.00;;;;;-147.17;92.18;50651.13;4991607;28;51015;-64
2022/02/08 03:38:00;;;;;;;;;9.25;8.50;;;;;-147.17;92.39;50635.38;4990299;28;51743;-64
2022/02/08 03:45:52;;;;;;;;;9.00;8.50;;;;;-147.17;94.04;50629.47;4991821;28;51159;-64
2022/02/08 03:48:20;;;;;;;;;8.50;8.25;;;;;-147.17;94.43;50641.28;4993934;28;51329;-64
2022/02/08 03:50:52;;;;;;;;;8.50;8.00;;;;;-147.17;94.43;50631.44;4991726;28;51736;-64
2022/02/08 03:53:18;;;;;;;;;6.00;5.50;;;;;-147.17;94.78;50619.63;4992104;28;51427;-64
2022/02/08 03:55:46;;;;;;;;;8.25;8.25;;;;;-147.17;95.09;50631.44;4991922;28;51287;-64
2022/02/08 03:58:11;;;;;;;;;10.00;9.00;;;;;-147.17;95.51;50607.81;4991326;28;50992;-64
2022/02/08 04:00:52;;;;;;;;;10.00;9.00;;;;;-147.17;95.34;50607.81;4967591;28;51651;-65
2022/02/08 04:03:18;;;;;;;;;8.75;8.75;;;;;-147.17;95.90;50629.47;4974212;28;51108;-65
2022/02/08 04:05:47;;;;;;;;;8.00;8.00;;;;;-147.17;96.37;50619.63;4990797;28;51139;-65
2022/02/08 04:08:15;;;;;;;;;8.00;8.00;;;;;-147.17;96.75;50627.50;4990922;28;51251;-64
2022/02/08 04:10:42;;;;;;;;;11.75;8.00;;;;;-147.17;96.81;50607.81;4989740;28;51687;-64
2022/02/08 04:13:14;;;;;;;;;7.50;6.25;;;;;-147.17;97.27;50611.75;4990960;28;51114;-65
2022/02/08 04:15:56;;;;;;;;;8.75;8.00;;;;;-147.17;97.59;50621.59;4991145;28;50897;-65
2022/02/08 04:40:14;;;;;;;;;7.75;7.25;;;;;-147.17;98.32;50617.66;4994237;28;51117;-64
2022/02/08 04:42:49;;;;;;;;;7.00;6.25;;;;;-147.17;98.63;50578.28;4993856;28;51822;-64
2022/02/08 04:48:00;;;;;;;;;5.50;5.25;;;;;-147.17;98.82;50603.88;4990726;28;51212;-63
2022/02/08 04:50:28;;;;;;;;;8.00;6.25;;;;;-147.17;99.13;50605.84;4992871;28;51345;-66
2022/02/08 04:52:59;;;;;;;;;6.67;5.00;;;;;-147.17;99.10;50603.88;4987978;28;51217;-65
2022/02/08 04:55:42;;;;;;;;;5.00;4.50;;;;;-147.17;99.09;50605.84;4990771;28;51165;-65
2022/02/08 05:00:59;;;;;;;;;7.67;5.00;;;;;-147.17;99.79;50605.84;4998632;28;51050;-64
2022/02/08 05:44:37;;;;;;;;;6.25;6.25;;;;;-147.17;100.00;50586.16;4991658;28;51055;-64
2022/02/08 05:47:03;;;;;;;;;9.75;9.75;;;;;-147.17;100.00;50533.00;4988817;28;52163;-64
2022/02/08 05:49:50;;;;;;;;;5.33;5.00;;;;;-147.17;100.00;50554.66;4992482;28;51223;-64
2022/02/08 05:52:44;;;;;;;;;7.00;5.75;;;;;-147.17;100.00;50580.25;4993457;28;50987;-64
2022/02/08 05:55:07;;;;;;;;;8.00;8.00;;;;;-147.17;100.00;50564.50;4992640;28;51028;-64
2022/02/08 05:57:33;;;;;;;;;5.50;5.25;;;;;-147.17;100.00;50527.09;4991924;28;51051;-64
2022/02/08 05:59:58;;;;;;;;;8.75;7.50;;;;;-147.17;100.00;50507.41;4991928;28;51082;-64
2022/02/08 06:02:23;;;;;;;;;5.00;5.00;;;;;-147.17;100.00;50572.38;4991199;28;51300;-65
2022/02/08 06:04:49;;;;;;;;;6.25;5.50;;;;;-147.17;100.00;50568.44;4990649;28;51178;-64
2022/02/08 06:07:19;;;;;;;;;7.50;5.25;;;;;-147.17;100.00;50536.94;4975291;28;53915;-64
2022/02/08 06:09:45;;;;;;;;;6.67;6.33;;;;;-147.17;100.00;50513.31;4993273;28;51839;-65
2022/02/08 06:12:11;;;;;;;;;4.00;4.00;;;;;-147.17;100.00;50572.38;4993363;28;51308;-65
2022/02/08 06:14:36;;;;;;;;;5.33;5.00;;;;;-147.17;100.00;50534.97;4993769;28;51086;-64
2022/02/08 06:17:02;;;;;;;;;6.00;6.00;;;;;-147.17;100.00;50513.31;4993485;28;51888;-64
2022/02/08 06:19:27;;;;;;;;;4.00;4.00;;;;;-147.17;100.00;50544.81;4992365;28;51076;-65
2022/02/08 06:21:53;;;;;;;;;8.00;4.00;;;;;-147.17;100.00;50529.06;5000633;28;51233;-65
2022/02/08 06:24:18;;;;;;;;;5.25;5.00;;;;;-147.17;100.00;50531.03;4994858;28;51301;-65
2022/02/08 06:26:44;;;;;;;;;6.00;6.00;;;;;-147.17;100.00;50491.66;4985483;28;52792;-65
2022/02/08 06:29:15;;;;;;;;;5.75;5.75;;;;;-147.17;100.00;50501.50;4991016;28;51127;-65
2022/02/08 06:31:41;;;;;;;;;8.75;8.75;;;;;-147.17;100.00;50562.53;4992606;28;51285;-64
2022/02/08 06:34:07;;;;;;;;;6.00;5.25;;;;;-147.17;100.00;50521.19;4982267;28;51408;-65
2022/02/08 06:36:32;;;;;;;;;6.75;5.75;;;;;-147.17;100.00;50505.44;4992444;28;51880;-65
2022/02/08 06:38:58;;;;;;;;;6.33;6.33;;;;;-147.17;100.00;50519.22;4992570;28;51173;-65
2022/02/08 06:41:23;;;;;;;;;7.50;5.50;;;;;-147.17;100.00;50501.50;4959079;28;50981;-65
2022/02/08 06:43:49;;;;;;;;;5.00;5.00;;;;;-147.17;100.00;50529.06;4993410;28;50989;-65
2022/02/08 06:46:14;;;;;;;;;5.00;5.00;;;;;-147.17;100.00;50517.25;4990701;28;51200;-65
2022/02/08 06:48:39;;;;;;;;;5.00;5.00;;;;;-147.17;100.00;50505.44;4991961;28;51168;-64
2022/02/08 06:51:05;;;;;;;;;4.00;3.67;;;;;-147.17;100.00;50503.47;4991129;28;51332;-64
2022/02/08 06:53:30;;;;;;;;;5.33;5.33;;;;;-147.17;100.00;50507.41;4973750;28;51155;-63
2022/02/08 06:55:56;;;;;;;;;3.00;3.00;;;;;-147.17;100.00;50497.56;4991748;28;50999;-65
2022/02/08 06:58:25;;;;;;;;;5.00;5.00;;;;;-147.17;100.00;50509.38;4992267;28;51243;-64
2022/02/08 07:00:51;;;;;;;;;8.25;7.00;;;;;-147.17;100.00;50499.53;4992543;28;51091;-63
2022/02/08 07:03:17;;;;;;;;;4.33;4.00;;;;;-147.17;100.00;50473.94;4992280;28;51131;-64
2022/02/08 07:05:43;;;;;;;;;5.00;5.00;;;;;-147.17;100.00;50513.31;4974402;28;52472;-64
2022/02/08 07:08:09;;;;;;;;;4.50;4.50;;;;;-147.17;100.00;50538.91;4992214;28;50980;-65
2022/02/08 07:10:35;;;;;;;;;5.67;5.67;;;;;-147.17;100.00;50544.81;5003512;28;51290;-65
2022/02/08 07:13:03;;;;;;;;;9.25;6.00;;;;;-147.17;100.00;50505.44;4992569;28;51006;-65
2022/02/08 07:15:29;;;;;;;;;4.00;4.00;;;;;-147.17;100.00;50475.91;4974082;28;53453;-65
2022/02/08 07:17:54;;;;;;;;;5.00;4.00;;;;;-147.17;100.00;50485.75;4991709;28;50978;-65
2022/02/08 07:20:20;;;;;;;;;6.67;6.33;;;;;-147.17;100.00;50513.31;4978536;28;50918;-68
2022/02/08 07:22:46;;;;;;;;;4.33;4.33;;;;;-147.17;100.00;50493.63;4990101;28;51149;-64
2022/02/08 07:25:13;;;;;;;;;6.75;6.25;;;;;-147.17;100.00;50489.69;4989973;28;51946;-61
2022/02/08 07:27:39;;;;;;;;;3.67;3.33;;;;;-147.17;100.00;50509.38;4991825;28;51181;-60
2022/02/08 07:30:13;;;;;;;;;8.00;8.00;;;;;-147.17;100.00;50485.75;4989006;28;51457;-61
2022/02/08 07:32:55;;;;;;;;;5.00;4.33;;;;;-147.17;100.00;50525.13;4988239;28;51202;-61
2022/02/08 07:35:43;;;;;;;;;5.00;5.00;;;;;-147.17;100.00;50493.63;4966226;28;51147;-61
2022/02/08 07:38:17;;;;;;;;;5.00;5.00;;;;;-147.17;100.00;50491.66;4989784;28;51161;-61
2022/02/08 07:43:09;;;;;;;;;6.00;5.00;;;;;-147.17;100.00;50495.59;4986384;28;51066;-61
2022/02/08 07:45:35;;;;;;;;;6.00;6.00;;;;;-147.17;100.00;50489.69;4980522;28;52252;-61
2022/02/08 07:48:00;;;;;;;;;6.00;6.00;;;;;-147.17;100.00;50473.94;4986669;28;52257;-62
2022/02/08 07:50:27;;;;;;;;;5.50;4.50;;;;;-147.17;100.00;50477.88;4995124;28;51185;-61
2022/02/08 07:52:53;;;;;;;;;6.00;5.33;;;;;-147.17;100.00;50491.66;4982684;28;51427;-61
2022/02/08 07:55:20;;;;;;;;;9.00;8.00;;;;;-147.17;100.00;50466.06;4979253;28;51918;-61
2022/02/08 07:57:45;;;;;;;;;6.00;6.00;;;;;-147.17;100.00;50505.44;4988098;28;51175;-61
2022/02/08 08:00:11;;;;;;;;;7.67;6.00;;;;;-147.17;100.00;50505.44;4987028;28;51724;-62
2022/02/08 08:02:37;;;;;;;;;6.00;6.00;;;;;-147.17;100.00;50452.28;4992618;28;51230;-62
2022/02/08 08:05:04;;;;;;;;;7.67;6.67;;;;;-147.17;100.00;50491.66;4995516;28;51111;-61
2022/02/08 08:07:29;;;;;;;;;8.00;6.00;;;;;-147.17;100.00;50481.81;4976952;28;51008;-60
2022/02/08 08:09:55;;;;;;;;;8.33;6.67;;;;;-147.17;100.00;50493.63;4995094;28;51646;-61
2022/02/08 08:12:22;;;;;;;;;9.67;7.67;;;;;-147.17;100.00;50505.44;4995821;28;51208;-62
2022/02/08 08:14:48;;;;;;;;;8.67;8.67;;;;;-147.17;100.00;50511.34;4993751;28;52335;-61
2022/02/08 08:19:54;;;;;;;;;8.67;8.33;;;;;-147.17;100.00;50531.03;4990103;28;51114;-61
2022/02/08 08:22:19;;;;;;;;;8.00;7.00;;;;;-147.17;100.00;50483.78;4992596;28;51205;-63
2022/02/08 08:24:46;;;;;;;;;7.00;7.00;;;;;-147.17;100.00;50507.41;4993595;28;51114;-64
2022/02/08 08:27:12;;;;;;;;;8.33;7.67;;;;;-147.17;100.00;50499.53;4990925;28;51120;-62
2022/02/08 08:29:38;;;;;;;;;9.00;9.00;;;;;-147.17;100.00;50515.28;4995079;28;51148;-63
2022/02/08 08:32:04;;;;;;;;;7.00;6.33;;;;;-147.17;100.00;50464.09;4984627;28;51728;-62
2022/02/08 08:34:30;;;;;;;;;9.00;8.67;;;;;-147.17;100.00;50456.22;4990651;28;51691;-62
2022/02/08 08:36:56;;;;;;;;;10.00;10.00;;;;;-147.17;100.00;50501.50;4988825;28;51166;-63
2022/02/08 08:39:26;;;;;;;;;9.75;9.50;;;;;-147.17;100.00;50507.41;4992754;28;51169;-63
2022/02/08 08:50:14;;;;;;;;;9.00;9.00;;;;;-147.17;100.00;50487.72;4978477;28;51090;-62
2022/02/08 08:52:45;;;;;;;;;9.50;8.75;;;;;-147.17;100.00;50513.31;4977848;28;51297;-62
2022/02/08 08:55:11;;;;;;;;;12.50;11.75;;;;;-147.17;100.00;50466.06;4990143;28;51682;-63
2022/02/08 08:57:37;;;;;;;;;1.00;0.00;;;;;-147.17;100.00;50485.75;4977885;28;51074;-61
2022/02/08 09:00:06;;;;;;;;;10.75;9.50;;;;;-147.17;100.00;50475.91;4992164;28;51220;-60
2022/02/08 09:02:31;;;;;;;;;7.25;7.25;;;;;-147.17;100.00;50491.66;4993738;28;51277;-60
2022/02/08 09:04:56;;;;;;;;;10.00;9.75;;;;;-147.17;100.00;50473.94;4993750;28;51657;-60
2022/02/08 09:07:22;;;;;;;;;13.25;11.75;;;;;-147.17;100.00;50505.44;4984802;28;50931;-60
2022/02/08 09:09:53;;;;;;;;;9.25;8.75;;;;;-147.17;100.00;50471.97;4988506;28;50988;-60
2022/02/08 09:12:51;;;;;;;;;12.00;10.50;;;;;-147.17;100.00;50511.34;4993876;28;51356;-60
2022/02/08 09:21:25;;;;;;;;;11.00;10.25;;;;;-147.17;100.00;50493.63;4986671;28;51099;-60
2022/02/08 09:28:53;;;;;;;;;19.25;15.00;;;;;-147.17;100.00;50509.38;5007318;28;51208;-61
2022/02/08 09:31:20;;;;;;;;;12.00;11.00;;;;;-147.17;100.00;50491.66;4980080;28;51141;-59
2022/02/08 09:33:47;;;;;;;;;12.00;11.25;;;;;-147.17;100.00;50499.53;4987990;28;51018;-63
2022/02/08 09:36:15;;;;;;;;;13.50;10.50;;;;;-147.17;100.00;50483.78;4981728;28;51104;-63
2022/02/08 09:38:40;;;;;;;;;13.00;12.00;;;;;-147.17;100.00;50544.81;4972141;28;51123;-62
2022/02/08 09:41:09;;;;;;;;;13.25;12.75;;;;;-147.17;100.00;50533.00;4974100;28;51116;-63
2022/02/08 09:43:37;;;;;;;;;11.25;11.25;;;;;-147.17;100.00;50491.66;4999180;28;52695;-63
2022/02/08 09:46:04;;;;;;;;;11.00;10.75;;;;;-147.17;100.00;50477.88;4985912;28;51144;-62
2022/02/08 09:51:01;;;;;;;;;10.00;10.00;;;;;-147.17;100.00;50507.41;4993746;28;51204;-62
2022/02/08 09:53:35;;;;;;;;;12.50;11.25;;;;;-147.17;100.00;50473.94;4975660;28;51363;-62
2022/02/08 09:56:03;;;;;;;;;11.75;11.75;;;;;-147.17;100.00;50501.50;4993622;28;51884;-62
2022/02/08 09:58:29;;;;;;;;;10.25;10.25;;;;;-147.17;100.00;50473.94;4993313;28;51465;-62
2022/02/08 10:01:08;;;;;;;;;11.00;10.00;;;;;-147.17;100.00;50485.75;4993684;28;51039;-62
2022/02/08 10:03:33;;;;;;;;;29.50;28.50;;;;;-147.17;100.00;50517.25;4993909;28;50855;-63
2022/02/08 10:05:59;;;;;;;;;11.50;11.50;;;;;-147.17;100.00;50485.75;4993377;28;51717;-62
2022/02/08 10:08:25;;;;;;;;;12.00;12.00;;;;;-147.17;100.00;50466.06;4976058;28;51055;-62
2022/02/08 10:10:51;;;;;;;;;12.25;10.50;;;;;-147.17;100.00;50475.91;4993822;28;50907;-63
2022/02/08 10:13:35;;;;;;;;;15.50;15.50;;;;;-147.17;100.00;50491.66;4993911;28;50870;-62
2022/02/08 10:19:14;;;;;;;;;11.50;10.50;;;;;-147.17;100.00;50509.38;4981437;28;50977;-62
2022/02/08 10:24:09;;;;;;;;;16.25;15.25;;;;;-147.17;100.00;50499.53;4992462;28;51338;-62
2022/02/08 10:29:27;;;;;;;;;13.00;12.00;;;;;-147.17;100.00;50529.06;4991741;28;51039;-63
2022/02/08 10:40:12;;;;;;;;;11.00;10.50;;;;;-147.17;100.00;50521.19;4992686;28;51147;-62
2022/02/08 10:42:41;;;;;;;;;13.75;12.00;;;;;-147.17;100.00;50515.28;4993353;28;50996;-62
2022/02/08 10:45:22;;;;;;;;;18.00;17.50;;;;;-147.17;100.00;50538.91;4992298;28;50976;-62
2022/02/08 10:48:03;;;;;;;;;5.00;4.25;;;;;-147.17;100.00;50509.38;4992775;28;52827;-62
2022/02/08 10:50:31;;;;;;;;;10.50;10.00;;;;;-147.17;100.00;50519.22;4993090;28;51211;-63
2022/02/08 10:53:04;;;;;;;;;11.00;10.00;;;;;-147.17;100.00;50503.47;4993123;28;51127;-63
2022/02/08 10:58:22;;;;;;;;;10.50;10.25;;;;;-147.17;100.00;50525.13;4975734;28;50977;-63
2022/02/08 11:00:56;;;;;;;;;15.00;12.25;;;;;-147.17;100.00;50507.41;4991493;28;51277;-62
2022/02/08 11:03:50;;;;;;;;;11.75;11.75;;;;;-147.17;100.00;50548.75;4976370;28;50966;-62
2022/02/08 11:06:39;;;;;;;;;12.00;11.25;;;;;-147.17;100.00;50515.28;4992887;28;50975;-63
2022/02/08 11:20:16;;;;;;;;;14.25;14.00;;;;;-147.17;100.00;50531.03;4992089;28;51783;-62
2022/02/08 11:22:52;;;;;;;;;13.00;13.00;;;;;-147.17;100.00;50529.06;4974462;28;51073;-63
2022/02/08 11:25:35;;;;;;;;;14.00;12.75;;;;;-147.17;100.00;50572.38;4991942;28;51118;-62
2022/02/08 11:28:15;;;;;;;;;11.00;10.00;;;;;-147.17;100.00;50568.44;4993481;28;51129;-63
2022/02/08 11:33:34;;;;;;;;;11.00;11.00;;;;;-147.17;100.00;50592.06;4990128;28;50956;-61
2022/02/08 11:44:52;;;;;;;;;8.33;7.67;;;;;-147.17;100.00;50558.59;4992144;28;51011;-62
2022/02/08 11:47:47;;;;;;;;;14.25;13.25;;;;;-147.17;100.00;50572.38;4992119;28;51066;-63
2022/02/08 11:51:02;;;;;;;;;15.25;14.00;;;;;-147.17;100.00;50597.97;4992373;28;50826;-63
2022/02/08 11:56:21;;;;;;;;;21.50;20.00;;;;;-147.17;100.00;50566.47;4991723;28;51099;-63
2022/02/08 11:59:03;;;;;;;;;16.50;14.75;;;;;-147.17;100.00;50562.53;4987469;28;51219;-63
2022/02/08 12:09:37;;;;;;;;;18.50;18.00;;;;;-147.17;100.00;50578.28;4990674;28;51124;-63
2022/02/08 12:12:28;;;;;;;;;17.00;16.50;;;;;-147.17;100.00;50560.56;4991684;28;51000;-62
2022/02/08 12:35:16;;;;;;;;;6.33;6.33;;;;;-147.17;100.00;50596.00;4990261;28;50929;-63
2022/02/08 12:49:54;;;;;;;;;9.33;8.00;;;;;-147.17;100.00;50627.50;4992839;28;51125;-62
2022/02/08 14:03:25;;;;;;;;;7.00;6.00;;;;;-147.17;100.00;50694.44;4990919;28;51117;-63
2022/02/08 14:06:19;;;;;;;;;8.00;7.00;;;;;-147.17;100.00;50659.00;4993083;28;51128;-62
2022/02/08 14:13:57;;;;;;;;;7.00;7.00;;;;;-147.17;100.00;50643.25;4975958;28;51352;-63
2022/02/08 14:29:49;;;;;;;;;8.00;8.00;;;;;-147.17;100.00;50700.34;4993323;28;51094;-61
2022/02/08 14:48:57;;;;;;;;;10.67;8.67;;;;;-147.17;100.00;50647.19;4992969;28;51454;-64
2022/02/08 15:10:20;;;;;;;;;8.00;8.00;;;;;-147.17;100.00;50647.19;4981485;28;51746;-63
2022/02/08 15:12:52;;;;;;;;;8.00;8.00;;;;;-147.17;100.00;50682.63;4992600;28;50953;-63
2022/02/08 15:15:31;;;;;;;;;8.00;8.00;;;;;-147.17;100.00;50653.09;4992722;28;51077;-62
2022/02/08 15:17:56;;;;;;;;;12.00;11.33;;;;;-147.17;100.00;50647.19;4992697;28;50894;-63
2022/02/08 15:20:23;;;;;;;;;11.33;8.00;;;;;-147.17;100.00;50639.31;4974751;28;52889;-64
2022/02/08 15:22:49;;;;;;;;;9.67;9.00;;;;;-147.17;100.00;50633.41;4992073;28;51024;-65
2022/02/08 15:25:14;;;;;;;;;12.00;12.00;;;;;-147.17;100.00;50670.81;4991792;28;51209;-63
2022/02/08 15:27:41;;;;;;;;;8.33;8.33;;;;;-147.17;100.00;50670.81;4975624;28;51372;-63
2022/02/08 15:30:09;;;;;;;;;8.33;8.33;;;;;-147.17;100.00;50651.13;4974770;28;51764;-63
2022/02/08 15:32:35;;;;;;;;;9.33;9.33;;;;;-147.17;100.00;50682.63;4990308;28;51144;-63
2022/02/08 15:35:02;;;;;;;;;9.00;9.00;;;;;-147.17;100.00;50647.19;4991571;28;51141;-63
2022/02/08 15:37:30;;;;;;;;;10.33;9.67;;;;;-147.17;100.00;50647.19;4992562;28;50905;-62
2022/02/08 15:40:00;;;;;;;;;15.00;11.33;;;;;-147.17;100.00;50643.25;4991250;28;52752;-63
2022/02/08 15:42:33;;;;;;;;;8.00;7.67;;;;;-147.17;100.00;50633.41;4974883;28;50936;-63
2022/02/08 15:45:10;;;;;;;;;9.33;9.33;;;;;-147.17;100.00;50668.84;4974251;28;51016;-63
2022/02/08 15:47:36;;;;;;;;;13.00;11.00;;;;;-147.17;100.00;50635.38;4992306;28;51032;-63
2022/02/08 15:50:05;;;;;;;;;11.00;9.50;;;;;-147.17;100.00;50643.25;4974177;28;52781;-62
2022/02/08 15:53:05;;;;;;;;;10.67;10.33;;;;;-147.17;100.00;50629.47;4992153;28;51126;-63
2022/02/08 15:55:36;;;;;;;;;11.00;10.33;;;;;-147.17;100.00;50639.31;4991754;28;51046;-63
2022/02/08 15:58:18;;;;;;;;;16.00;14.00;;;;;-147.17;100.00;50649.16;4992700;28;51022;-63
2022/02/08 16:09:00;;;;;;;;;12.33;12.33;;;;;-147.17;100.00;50607.81;4991120;28;51156;-62
2022/02/08 16:14:33;;;;;;;;;12.33;12.33;;;;;-147.17;100.00;50617.66;4991367;28;51080;-62
2022/02/08 16:25:09;;;;;;;;;13.33;13.33;;;;;-147.17;100.00;50649.16;4973534;28;51204;-61
2022/02/08 16:49:44;;;;;;;;;10.00;10.00;;;;;-147.17;100.00;50611.75;4994765;28;51513;-62
2022/02/08 16:55:05;;;;;;;;;10.33;8.33;;;;;-147.17;100.00;50576.31;4994523;28;51526;-62
2022/02/08 16:57:37;;;;;;;;;7.33;6.33;;;;;-147.17;100.00;50562.53;4995036;28;51049;-62
2022/02/08 17:00:06;;;;;;;;;9.00;7.33;;;;;-147.17;100.00;50564.50;4995436;28;50969;-61
2022/02/08 17:02:33;;;;;;;;;7.33;7.00;;;;;-147.17;100.00;50596.00;4994933;28;51056;-63
2022/02/08 17:05:03;;;;;;;;;9.67;9.00;;;;;-147.17;100.00;50572.38;4994660;28;51882;-63
2022/02/08 17:07:30;;;;;;;;;8.33;8.33;;;;;-147.17;100.00;50594.03;4994030;28;51029;-62
2022/02/08 17:09:59;;;;;;;;;6.33;6.33;;;;;-147.17;100.00;50596.00;4976344;28;51124;-62
2022/02/08 17:12:55;;;;;;;;;8.00;8.00;;;;;-147.17;100.00;50582.22;4994174;28;51228;-62
2022/02/08 17:18:16;;;;;;;;;8.00;8.00;;;;;-147.17;100.00;50576.31;4992056;28;50852;-61
2022/02/08 17:45:22;;;;;;;;;13.00;10.25;;;;;-147.17;100.00;50552.69;4994338;28;51062;-63
2022/02/08 17:47:48;;;;;;;;;16.00;14.75;;;;;-147.17;100.00;50497.56;4993459;28;51007;-62
2022/02/08 17:50:16;;;;;;;;;10.33;10.33;;;;;-147.17;100.00;50552.69;4993286;28;51377;-61
2022/02/08 17:52:42;;;;;;;;;12.00;11.33;;;;;-147.17;100.00;50570.41;4993897;28;51048;-62
2022/02/08 17:55:10;;;;;;;;;11.33;11.00;;;;;-147.17;100.00;50564.50;4993597;28;51194;-62
2022/02/08 17:57:35;;;;;;;;;12.75;12.25;;;;;-147.17;100.00;50552.69;4976687;28;52055;-61
2022/02/08 18:00:01;;;;;;;;;10.25;10.25;;;;;-147.17;100.00;50576.31;4993706;28;51134;-62
2022/02/08 18:02:27;;;;;;;;;13.75;13.00;;;;;-147.17;100.00;50556.63;4959438;28;51097;-63
2022/02/08 18:04:57;;;;;;;;;11.75;11.75;;;;;-147.17;100.00;50550.72;4994295;28;51130;-64
2022/02/08 18:07:24;;;;;;;;;11.00;11.00;;;;;-147.17;100.00;50523.16;4976536;28;51168;-63
2022/02/08 18:09:51;;;;;;;;;16.25;13.50;;;;;-147.17;100.00;50548.75;4990335;28;50885;-62
2022/02/08 18:12:19;;;;;;;;;14.00;10.67;;;;;-147.17;100.00;50564.50;4993394;28;51083;-62
2022/02/08 18:14:51;;;;;;;;;11.75;11.25;;;;;-147.17;100.00;50536.94;4993748;28;50937;-63
2022/02/08 18:17:22;;;;;;;;;17.50;16.00;;;;;-147.17;100.00;50544.81;4993465;28;52977;-64